sensor_id;sensor_type;location;lat;lon;timestamp;temperature;humidity
15951;DHT22;8074;48.112;11.570;2022-07-15T00:00:08;21.90;99.90
15951;DHT22;8074;48.112;11.570;2022-07-15T00:02:56;21.70;99.90
15951;DHT22;8074;48.112;11.570;2022-07-15T00:05:43;21.50;99.90
15951;DHT22;8074;48.112;11.570;2022-07-15T00:08:31;21.60;99.90
15951;DHT22;8074;48.112;11.570;2022-07-15T00:11:19;21.80;99.90
15951;DHT22;8074;48.112;11.570;2022-07-15T00:14:06;21.80;99.90
15951;DHT22;8074;48.112;11.570;2022-07-15T00:16:54;21.60;99.90
15951;DHT22;8074;48.112;11.570;2022-07-15T00:19:41;21.50;99.90
15951;DHT22;8074;48.112;11.570;2022-07-15T00:22:28;21.50;99.90
15951;DHT22;8074;48.112;11.570;2022-07-15T00:25:16;21.50;99.90
15951;DHT22;8074;48.112;11.570;2022-07-15T00:28:06;21.50;99.90
15951;DHT22;8074;48.112;11.570;2022-07-15T00:30:54;21.50;99.90
15951;DHT22;8074;48.112;11.570;2022-07-15T00:33:41;21.60;99.90
15951;DHT22;8074;48.112;11.570;2022-07-15T00:36:28;21.80;99.90
15951;DHT22;8074;48.112;11.570;2022-07-15T00:39:16;21.80;99.90
15951;DHT22;8074;48.112;11.570;2022-07-15T00:42:03;21.70;99.90
15951;DHT22;8074;48.112;11.570;2022-07-15T00:44:52;21.20;99.90
15951;DHT22;8074;48.112;11.570;2022-07-15T00:47:39;20.80;99.90
15951;DHT22;8074;48.112;11.570;2022-07-15T00:50:29;20.40;99.90
15951;DHT22;8074;48.112;11.570;2022-07-15T00:53:19;20.10;99.90
15951;DHT22;8074;48.112;11.570;2022-07-15T00:56:09;19.90;99.90
15951;DHT22;8074;48.112;11.570;2022-07-15T00:58:57;19.60;99.90
15951;DHT22;8074;48.112;11.570;2022-07-15T01:01:48;19.40;99.90
15951;DHT22;8074;48.112;11.570;2022-07-15T01:04:36;19.50;99.90
15951;DHT22;8074;48.112;11.570;2022-07-15T01:07:24;19.00;99.90
15951;DHT22;8074;48.112;11.570;2022-07-15T01:10:12;18.90;99.90
15951;DHT22;8074;48.112;11.570;2022-07-15T01:12:59;18.90;99.90
15951;DHT22;8074;48.112;11.570;2022-07-15T01:15:49;18.90;99.90
15951;DHT22;8074;48.112;11.570;2022-07-15T01:18:38;18.90;99.90
15951;DHT22;8074;48.112;11.570;2022-07-15T01:21:26;18.90;99.90
15951;DHT22;8074;48.112;11.570;2022-07-15T01:24:13;18.80;99.90
15951;DHT22;8074;48.112;11.570;2022-07-15T01:27:01;18.80;99.90
15951;DHT22;8074;48.112;11.570;2022-07-15T01:29:48;18.70;99.90
15951;DHT22;8074;48.112;11.570;2022-07-15T01:32:35;18.60;99.90
15951;DHT22;8074;48.112;11.570;2022-07-15T01:35:23;18.30;99.90
15951;DHT22;8074;48.112;11.570;2022-07-15T01:38:11;18.10;99.90
15951;DHT22;8074;48.112;11.570;2022-07-15T01:40:58;18.20;99.90
15951;DHT22;8074;48.112;11.570;2022-07-15T01:43:46;18.30;99.90
15951;DHT22;8074;48.112;11.570;2022-07-15T01:46:33;18.30;99.90
15951;DHT22;8074;48.112;11.570;2022-07-15T01:49:21;18.30;99.90
15951;DHT22;8074;48.112;11.570;2022-07-15T01:52:09;18.30;99.90
15951;DHT22;8074;48.112;11.570;2022-07-15T01:54:57;18.30;99.90
15951;DHT22;8074;48.112;11.570;2022-07-15T01:57:44;18.30;99.90
15951;DHT22;8074;48.112;11.570;2022-07-15T02:00:32;18.20;99.90
15951;DHT22;8074;48.112;11.570;2022-07-15T02:03:19;18.30;99.90
15951;DHT22;8074;48.112;11.570;2022-07-15T02:06:06;18.40;99.90
15951;DHT22;8074;48.112;11.570;2022-07-15T02:08:54;18.50;99.90
15951;DHT22;8074;48.112;11.570;2022-07-15T02:11:43;18.20;99.90
15951;DHT22;8074;48.112;11.570;2022-07-15T02:14:31;18.40;99.90
15951;DHT22;8074;48.112;11.570;2022-07-15T02:17:19;18.40;99.90
15951;DHT22;8074;48.112;11.570;2022-07-15T02:20:07;18.60;99.90
15951;DHT22;8074;48.112;11.570;2022-07-15T02:22:55;18.50;99.90
15951;DHT22;8074;48.112;11.570;2022-07-15T02:25:44;18.50;99.90
15951;DHT22;8074;48.112;11.570;2022-07-15T02:28:32;18.70;99.90
15951;DHT22;8074;48.112;11.570;2022-07-15T02:31:20;18.80;99.90
15951;DHT22;8074;48.112;11.570;2022-07-15T02:34:07;18.70;99.90
15951;DHT22;8074;48.112;11.570;2022-07-15T02:36:55;18.70;99.90
15951;DHT22;8074;48.112;11.570;2022-07-15T02:39:42;18.60;99.90
15951;DHT22;8074;48.112;11.570;2022-07-15T02:42:29;18.50;99.90
15951;DHT22;8074;48.112;11.570;2022-07-15T02:45:18;18.50;99.90
15951;DHT22;8074;48.112;11.570;2022-07-15T02:48:06;18.50;99.90
15951;DHT22;8074;48.112;11.570;2022-07-15T02:50:53;18.60;99.90
15951;DHT22;8074;48.112;11.570;2022-07-15T02:53:40;18.50;99.90
15951;DHT22;8074;48.112;11.570;2022-07-15T02:56:28;18.40;99.90
15951;DHT22;8074;48.112;11.570;2022-07-15T02:59:15;18.20;99.90
15951;DHT22;8074;48.112;11.570;2022-07-15T03:02:03;18.00;99.90
15951;DHT22;8074;48.112;11.570;2022-07-15T03:04:51;18.10;99.90
15951;DHT22;8074;48.112;11.570;2022-07-15T03:07:38;18.10;99.90
15951;DHT22;8074;48.112;11.570;2022-07-15T03:10:26;18.00;99.90
15951;DHT22;8074;48.112;11.570;2022-07-15T03:13:13;18.10;99.90
15951;DHT22;8074;48.112;11.570;2022-07-15T03:16:00;18.10;99.90
15951;DHT22;8074;48.112;11.570;2022-07-15T03:18:49;18.00;99.90
15951;DHT22;8074;48.112;11.570;2022-07-15T03:21:36;17.90;99.90
15951;DHT22;8074;48.112;11.570;2022-07-15T03:24:23;17.90;99.90
15951;DHT22;8074;48.112;11.570;2022-07-15T03:27:10;17.90;99.90
15951;DHT22;8074;48.112;11.570;2022-07-15T03:29:57;17.60;99.90
15951;DHT22;8074;48.112;11.570;2022-07-15T03:32:45;17.50;99.90
15951;DHT22;8074;48.112;11.570;2022-07-15T03:35:34;17.40;99.90
15951;DHT22;8074;48.112;11.570;2022-07-15T03:38:21;17.40;99.90
15951;DHT22;8074;48.112;11.570;2022-07-15T03:41:08;17.50;99.90
15951;DHT22;8074;48.112;11.570;2022-07-15T03:43:55;17.60;99.90
15951;DHT22;8074;48.112;11.570;2022-07-15T03:46:43;17.70;99.90
15951;DHT22;8074;48.112;11.570;2022-07-15T03:49:31;17.70;99.90
15951;DHT22;8074;48.112;11.570;2022-07-15T03:52:20;17.60;99.90
15951;DHT22;8074;48.112;11.570;2022-07-15T03:55:08;17.50;99.90
15951;DHT22;8074;48.112;11.570;2022-07-15T03:57:57;17.60;99.90
15951;DHT22;8074;48.112;11.570;2022-07-15T04:00:44;17.70;99.90
15951;DHT22;8074;48.112;11.570;2022-07-15T04:03:31;17.80;99.90
15951;DHT22;8074;48.112;11.570;2022-07-15T04:06:20;17.90;99.90
15951;DHT22;8074;48.112;11.570;2022-07-15T04:09:09;18.10;99.90
15951;DHT22;8074;48.112;11.570;2022-07-15T04:11:56;18.10;99.90
15951;DHT22;8074;48.112;11.570;2022-07-15T04:14:44;18.10;99.90
15951;DHT22;8074;48.112;11.570;2022-07-15T04:17:31;18.20;99.90
15951;DHT22;8074;48.112;11.570;2022-07-15T04:20:18;18.30;99.90
15951;DHT22;8074;48.112;11.570;2022-07-15T04:23:05;18.20;99.90
15951;DHT22;8074;48.112;11.570;2022-07-15T04:25:54;18.20;99.90
15951;DHT22;8074;48.112;11.570;2022-07-15T04:28:41;18.30;99.90
15951;DHT22;8074;48.112;11.570;2022-07-15T04:31:29;18.20;99.90
15951;DHT22;8074;48.112;11.570;2022-07-15T04:34:16;18.20;99.90
15951;DHT22;8074;48.112;11.570;2022-07-15T04:37:03;18.30;99.90
15951;DHT22;8074;48.112;11.570;2022-07-15T04:39:50;18.40;99.90
15951;DHT22;8074;48.112;11.570;2022-07-15T04:42:39;18.60;99.90
15951;DHT22;8074;48.112;11.570;2022-07-15T04:45:27;18.50;99.90
15951;DHT22;8074;48.112;11.570;2022-07-15T04:48:14;18.70;99.90
15951;DHT22;8074;48.112;11.570;2022-07-15T04:51:19;18.70;99.90
15951;DHT22;8074;48.112;11.570;2022-07-15T04:54:06;18.70;99.90
15951;DHT22;8074;48.112;11.570;2022-07-15T04:56:54;18.60;99.90
15951;DHT22;8074;48.112;11.570;2022-07-15T04:59:42;18.60;99.90
15951;DHT22;8074;48.112;11.570;2022-07-15T05:02:30;18.60;99.90
15951;DHT22;8074;48.112;11.570;2022-07-15T05:05:17;18.60;99.90
15951;DHT22;8074;48.112;11.570;2022-07-15T05:08:04;18.60;99.90
15951;DHT22;8074;48.112;11.570;2022-07-15T05:10:32;18.40;99.90
15951;DHT22;8074;48.112;11.570;2022-07-15T05:12:59;18.40;99.90
15951;DHT22;8074;48.112;11.570;2022-07-15T05:15:29;18.50;99.90
15951;DHT22;8074;48.112;11.570;2022-07-15T05:17:56;18.50;99.90
15951;DHT22;8074;48.112;11.570;2022-07-15T05:20:23;18.70;99.90
15951;DHT22;8074;48.112;11.570;2022-07-15T05:22:50;18.60;99.90
15951;DHT22;8074;48.112;11.570;2022-07-15T05:25:18;18.70;99.90
15951;DHT22;8074;48.112;11.570;2022-07-15T05:27:45;18.80;99.90
15951;DHT22;8074;48.112;11.570;2022-07-15T05:30:13;18.70;99.90
15951;DHT22;8074;48.112;11.570;2022-07-15T05:32:43;18.80;99.90
15951;DHT22;8074;48.112;11.570;2022-07-15T05:35:13;18.80;99.90
15951;DHT22;8074;48.112;11.570;2022-07-15T05:37:41;18.90;99.90
15951;DHT22;8074;48.112;11.570;2022-07-15T05:40:10;19.00;99.90
15951;DHT22;8074;48.112;11.570;2022-07-15T05:42:38;19.10;99.90
15951;DHT22;8074;48.112;11.570;2022-07-15T05:45:07;19.10;99.90
15951;DHT22;8074;48.112;11.570;2022-07-15T05:47:34;19.20;99.90
15951;DHT22;8074;48.112;11.570;2022-07-15T05:50:04;19.30;99.90
15951;DHT22;8074;48.112;11.570;2022-07-15T05:52:31;19.50;99.90
15951;DHT22;8074;48.112;11.570;2022-07-15T05:54:58;19.70;99.90
15951;DHT22;8074;48.112;11.570;2022-07-15T05:57:25;19.80;99.90
15951;DHT22;8074;48.112;11.570;2022-07-15T05:59:52;19.90;99.90
15951;DHT22;8074;48.112;11.570;2022-07-15T06:02:19;19.80;99.90
15951;DHT22;8074;48.112;11.570;2022-07-15T06:04:46;19.70;99.90
15951;DHT22;8074;48.112;11.570;2022-07-15T06:07:14;19.60;99.90
15951;DHT22;8074;48.112;11.570;2022-07-15T06:09:41;19.60;99.90
15951;DHT22;8074;48.112;11.570;2022-07-15T06:12:08;19.60;99.90
15951;DHT22;8074;48.112;11.570;2022-07-15T06:14:36;19.60;99.90
15951;DHT22;8074;48.112;11.570;2022-07-15T06:17:03;19.60;99.90
15951;DHT22;8074;48.112;11.570;2022-07-15T06:19:32;19.50;99.90
15951;DHT22;8074;48.112;11.570;2022-07-15T06:22:00;19.40;99.90
15951;DHT22;8074;48.112;11.570;2022-07-15T06:24:28;19.50;99.90
15951;DHT22;8074;48.112;11.570;2022-07-15T06:26:55;19.40;99.90
15951;DHT22;8074;48.112;11.570;2022-07-15T06:29:41;19.40;99.90
15951;DHT22;8074;48.112;11.570;2022-07-15T06:32:28;19.60;99.90
15951;DHT22;8074;48.112;11.570;2022-07-15T06:35:15;19.70;99.90
15951;DHT22;8074;48.112;11.570;2022-07-15T06:38:02;19.90;99.90
15951;DHT22;8074;48.112;11.570;2022-07-15T06:40:51;19.90;99.90
15951;DHT22;8074;48.112;11.570;2022-07-15T06:43:39;20.10;99.90
15951;DHT22;8074;48.112;11.570;2022-07-15T06:46:28;20.30;99.90
15951;DHT22;8074;48.112;11.570;2022-07-15T06:49:16;20.40;99.90
15951;DHT22;8074;48.112;11.570;2022-07-15T06:52:04;20.60;99.90
15951;DHT22;8074;48.112;11.570;2022-07-15T06:54:51;20.60;99.90
15951;DHT22;8074;48.112;11.570;2022-07-15T06:57:41;20.80;99.90
15951;DHT22;8074;48.112;11.570;2022-07-15T07:00:28;20.60;99.90
15951;DHT22;8074;48.112;11.570;2022-07-15T07:03:15;20.70;99.90
15951;DHT22;8074;48.112;11.570;2022-07-15T07:06:03;20.90;99.90
15951;DHT22;8074;48.112;11.570;2022-07-15T07:08:52;21.10;99.90
15951;DHT22;8074;48.112;11.570;2022-07-15T07:11:39;20.70;99.90
15951;DHT22;8074;48.112;11.570;2022-07-15T07:14:28;20.70;99.90
15951;DHT22;8074;48.112;11.570;2022-07-15T07:17:15;20.90;99.90
15951;DHT22;8074;48.112;11.570;2022-07-15T07:20:03;21.00;99.90
15951;DHT22;8074;48.112;11.570;2022-07-15T07:22:50;20.90;99.90
15951;DHT22;8074;48.112;11.570;2022-07-15T07:25:38;21.10;99.90
15951;DHT22;8074;48.112;11.570;2022-07-15T07:28:25;20.80;99.90
15951;DHT22;8074;48.112;11.570;2022-07-15T07:31:14;21.00;99.90
15951;DHT22;8074;48.112;11.570;2022-07-15T07:34:02;21.30;99.90
15951;DHT22;8074;48.112;11.570;2022-07-15T07:36:49;21.40;99.90
15951;DHT22;8074;48.112;11.570;2022-07-15T07:39:36;21.30;99.90
15951;DHT22;8074;48.112;11.570;2022-07-15T07:42:24;21.40;99.90
15951;DHT22;8074;48.112;11.570;2022-07-15T07:45:12;21.50;99.90
15951;DHT22;8074;48.112;11.570;2022-07-15T07:48:00;21.50;99.90
15951;DHT22;8074;48.112;11.570;2022-07-15T07:50:48;21.50;99.90
15951;DHT22;8074;48.112;11.570;2022-07-15T07:53:35;21.40;99.90
15951;DHT22;8074;48.112;11.570;2022-07-15T07:56:23;21.50;99.90
15951;DHT22;8074;48.112;11.570;2022-07-15T07:59:10;21.60;99.90
15951;DHT22;8074;48.112;11.570;2022-07-15T08:01:57;21.60;99.90
15951;DHT22;8074;48.112;11.570;2022-07-15T08:04:46;21.50;99.90
15951;DHT22;8074;48.112;11.570;2022-07-15T08:07:33;21.30;99.90
15951;DHT22;8074;48.112;11.570;2022-07-15T08:10:21;21.40;99.90
15951;DHT22;8074;48.112;11.570;2022-07-15T08:13:08;21.90;99.90
15951;DHT22;8074;48.112;11.570;2022-07-15T08:15:56;22.50;99.90
15951;DHT22;8074;48.112;11.570;2022-07-15T08:18:38;23.20;99.90
15951;DHT22;8074;48.112;11.570;2022-07-15T08:21:07;23.70;99.90
15951;DHT22;8074;48.112;11.570;2022-07-15T08:23:34;23.80;99.90
15951;DHT22;8074;48.112;11.570;2022-07-15T08:26:01;23.70;99.90
15951;DHT22;8074;48.112;11.570;2022-07-15T08:28:30;24.50;99.90
15951;DHT22;8074;48.112;11.570;2022-07-15T08:30:57;25.30;99.90
15951;DHT22;8074;48.112;11.570;2022-07-15T08:33:24;25.20;99.90
15951;DHT22;8074;48.112;11.570;2022-07-15T08:35:50;25.50;99.90
15951;DHT22;8074;48.112;11.570;2022-07-15T08:38:20;25.00;99.90
15951;DHT22;8074;48.112;11.570;2022-07-15T08:40:47;25.80;99.90
15951;DHT22;8074;48.112;11.570;2022-07-15T08:43:14;26.00;99.90
15951;DHT22;8074;48.112;11.570;2022-07-15T08:45:41;26.20;99.90
15951;DHT22;8074;48.112;11.570;2022-07-15T08:48:10;26.70;99.90
15951;DHT22;8074;48.112;11.570;2022-07-15T08:50:38;26.00;99.90
15951;DHT22;8074;48.112;11.570;2022-07-15T08:53:05;25.50;99.90
15951;DHT22;8074;48.112;11.570;2022-07-15T08:55:34;25.00;99.90
15951;DHT22;8074;48.112;11.570;2022-07-15T08:58:01;26.30;99.90
15951;DHT22;8074;48.112;11.570;2022-07-15T09:00:29;27.30;99.90
15951;DHT22;8074;48.112;11.570;2022-07-15T09:02:57;25.70;99.90
15951;DHT22;8074;48.112;11.570;2022-07-15T09:05:43;26.20;99.90
15951;DHT22;8074;48.112;11.570;2022-07-15T09:08:30;27.50;99.90
15951;DHT22;8074;48.112;11.570;2022-07-15T09:11:29;27.90;99.90
15951;DHT22;8074;48.112;11.570;2022-07-15T09:14:18;29.00;99.90
15951;DHT22;8074;48.112;11.570;2022-07-15T09:17:19;28.70;99.90
15951;DHT22;8074;48.112;11.570;2022-07-15T09:20:09;28.20;99.90
15951;DHT22;8074;48.112;11.570;2022-07-15T09:22:59;28.90;99.90
15951;DHT22;8074;48.112;11.570;2022-07-15T09:25:48;28.80;99.90
15951;DHT22;8074;48.112;11.570;2022-07-15T09:28:40;28.80;99.90
15951;DHT22;8074;48.112;11.570;2022-07-15T09:31:31;28.90;99.90
15951;DHT22;8074;48.112;11.570;2022-07-15T09:37:57;28.70;99.30
15951;DHT22;8074;48.112;11.570;2022-07-15T09:40:47;27.80;99.90
15951;DHT22;8074;48.112;11.570;2022-07-15T09:43:50;27.50;99.90
15951;DHT22;8074;48.112;11.570;2022-07-15T09:46:47;27.70;99.90
15951;DHT22;8074;48.112;11.570;2022-07-15T09:49:35;28.00;99.90
15951;DHT22;8074;48.112;11.570;2022-07-15T09:52:24;29.20;99.40
15951;DHT22;8074;48.112;11.570;2022-07-15T09:55:11;29.80;99.40
15951;DHT22;8074;48.112;11.570;2022-07-15T09:57:59;29.40;98.40
15951;DHT22;8074;48.112;11.570;2022-07-15T10:00:52;29.10;98.30
15951;DHT22;8074;48.112;11.570;2022-07-15T10:03:39;29.90;98.00
15951;DHT22;8074;48.112;11.570;2022-07-15T10:06:27;30.40;96.90
15951;DHT22;8074;48.112;11.570;2022-07-15T10:09:20;29.10;96.80
15951;DHT22;8074;48.112;11.570;2022-07-15T10:12:13;29.30;97.40
15951;DHT22;8074;48.112;11.570;2022-07-15T10:15:09;30.50;96.70
15951;DHT22;8074;48.112;11.570;2022-07-15T10:18:13;30.40;95.60
15951;DHT22;8074;48.112;11.570;2022-07-15T10:21:06;30.20;95.90
15951;DHT22;8074;48.112;11.570;2022-07-15T10:24:02;29.20;96.70
15951;DHT22;8074;48.112;11.570;2022-07-15T10:26:43;29.70;96.40
15951;DHT22;8074;48.112;11.570;2022-07-15T10:29:14;29.00;95.90
15951;DHT22;8074;48.112;11.570;2022-07-15T10:31:41;28.60;96.10
15951;DHT22;8074;48.112;11.570;2022-07-15T10:34:19;28.30;96.30
15951;DHT22;8074;48.112;11.570;2022-07-15T10:37:04;29.10;95.80
15951;DHT22;8074;48.112;11.570;2022-07-15T10:39:51;30.40;95.20
15951;DHT22;8074;48.112;11.570;2022-07-15T10:42:19;31.70;94.50
15951;DHT22;8074;48.112;11.570;2022-07-15T10:45:05;31.40;94.60
15951;DHT22;8074;48.112;11.570;2022-07-15T10:47:33;32.70;93.00
15951;DHT22;8074;48.112;11.570;2022-07-15T10:50:34;31.90;92.90
15951;DHT22;8074;48.112;11.570;2022-07-15T10:53:15;32.30;93.00
15951;DHT22;8074;48.112;11.570;2022-07-15T10:55:43;33.20;92.00
15951;DHT22;8074;48.112;11.570;2022-07-15T10:58:12;31.30;92.80
15951;DHT22;8074;48.112;11.570;2022-07-15T11:00:42;32.70;92.90
15951;DHT22;8074;48.112;11.570;2022-07-15T11:03:11;33.10;90.90
15951;DHT22;8074;48.112;11.570;2022-07-15T11:06:02;33.30;91.50
15951;DHT22;8074;48.112;11.570;2022-07-15T11:08:54;35.20;90.10
15951;DHT22;8074;48.112;11.570;2022-07-15T11:11:45;34.40;87.90
15951;DHT22;8074;48.112;11.570;2022-07-15T11:17:19;31.70;89.30
15951;DHT22;8074;48.112;11.570;2022-07-15T11:19:51;32.50;89.00
15951;DHT22;8074;48.112;11.570;2022-07-15T11:22:21;33.40;88.40
15951;DHT22;8074;48.112;11.570;2022-07-15T11:24:49;33.40;88.00
15951;DHT22;8074;48.112;11.570;2022-07-15T11:27:16;31.50;89.00
15951;DHT22;8074;48.112;11.570;2022-07-15T11:29:45;31.50;88.50
15951;DHT22;8074;48.112;11.570;2022-07-15T11:32:14;31.20;88.80
15951;DHT22;8074;48.112;11.570;2022-07-15T11:34:43;32.20;88.10
15951;DHT22;8074;48.112;11.570;2022-07-15T11:37:10;33.00;87.60
15951;DHT22;8074;48.112;11.570;2022-07-15T11:39:39;33.30;85.60
15951;DHT22;8074;48.112;11.570;2022-07-15T11:42:18;32.70;85.40
15951;DHT22;8074;48.112;11.570;2022-07-15T11:45:03;30.90;88.30
15951;DHT22;8074;48.112;11.570;2022-07-15T11:47:30;31.00;89.10
15951;DHT22;8074;48.112;11.570;2022-07-15T11:50:01;29.80;90.20
15951;DHT22;8074;48.112;11.570;2022-07-15T11:52:29;28.20;91.30
15951;DHT22;8074;48.112;11.570;2022-07-15T11:54:57;28.00;91.60
15951;DHT22;8074;48.112;11.570;2022-07-15T11:57:24;28.20;91.70
15951;DHT22;8074;48.112;11.570;2022-07-15T11:59:58;27.90;91.70
15951;DHT22;8074;48.112;11.570;2022-07-15T12:02:26;28.10;91.80
15951;DHT22;8074;48.112;11.570;2022-07-15T12:05:01;28.80;91.20
15951;DHT22;8074;48.112;11.570;2022-07-15T12:07:41;30.80;90.60
15951;DHT22;8074;48.112;11.570;2022-07-15T12:10:11;31.10;88.10
15951;DHT22;8074;48.112;11.570;2022-07-15T12:12:46;30.60;89.10
15951;DHT22;8074;48.112;11.570;2022-07-15T12:15:18;31.10;89.70
15951;DHT22;8074;48.112;11.570;2022-07-15T12:17:46;31.00;88.30
15951;DHT22;8074;48.112;11.570;2022-07-15T12:20:13;30.50;89.70
15951;DHT22;8074;48.112;11.570;2022-07-15T12:23:02;30.20;89.90
15951;DHT22;8074;48.112;11.570;2022-07-15T12:25:30;30.60;89.30
15951;DHT22;8074;48.112;11.570;2022-07-15T12:27:58;31.30;87.90
15951;DHT22;8074;48.112;11.570;2022-07-15T12:30:31;30.90;88.40
15951;DHT22;8074;48.112;11.570;2022-07-15T12:33:23;31.10;89.00
15951;DHT22;8074;48.112;11.570;2022-07-15T12:35:50;32.10;88.20
15951;DHT22;8074;48.112;11.570;2022-07-15T12:38:37;32.10;87.10
15951;DHT22;8074;48.112;11.570;2022-07-15T12:41:06;32.30;87.30
15951;DHT22;8074;48.112;11.570;2022-07-15T12:43:46;33.00;86.90
15951;DHT22;8074;48.112;11.570;2022-07-15T12:46:13;34.60;83.60
15951;DHT22;8074;48.112;11.570;2022-07-15T12:49:00;35.50;83.00
15951;DHT22;8074;48.112;11.570;2022-07-15T12:51:28;36.10;81.90
15951;DHT22;8074;48.112;11.570;2022-07-15T12:54:03;34.00;82.10
15951;DHT22;8074;48.112;11.570;2022-07-15T12:56:31;32.20;84.30
15951;DHT22;8074;48.112;11.570;2022-07-15T12:58:58;32.20;84.20
15951;DHT22;8074;48.112;11.570;2022-07-15T13:01:25;32.30;84.30
15951;DHT22;8074;48.112;11.570;2022-07-15T13:03:53;32.60;83.60
15951;DHT22;8074;48.112;11.570;2022-07-15T13:06:21;32.60;83.70
15951;DHT22;8074;48.112;11.570;2022-07-15T13:08:48;34.30;83.50
15951;DHT22;8074;48.112;11.570;2022-07-15T13:11:15;35.90;81.50
15951;DHT22;8074;48.112;11.570;2022-07-15T13:13:44;37.20;77.00
15951;DHT22;8074;48.112;11.570;2022-07-15T13:16:12;36.50;78.00
15951;DHT22;8074;48.112;11.570;2022-07-15T13:18:39;36.60;76.10
15951;DHT22;8074;48.112;11.570;2022-07-15T13:21:06;32.90;79.40
15951;DHT22;8074;48.112;11.570;2022-07-15T13:23:35;30.00;84.90
15951;DHT22;8074;48.112;11.570;2022-07-15T13:26:02;29.50;87.90
15951;DHT22;8074;48.112;11.570;2022-07-15T13:28:29;30.80;86.00
15951;DHT22;8074;48.112;11.570;2022-07-15T13:30:56;31.60;83.60
15951;DHT22;8074;48.112;11.570;2022-07-15T13:33:23;32.70;82.60
15951;DHT22;8074;48.112;11.570;2022-07-15T13:35:50;33.80;81.80
15951;DHT22;8074;48.112;11.570;2022-07-15T13:38:17;36.20;78.70
15951;DHT22;8074;48.112;11.570;2022-07-15T13:40:45;35.10;78.60
15951;DHT22;8074;48.112;11.570;2022-07-15T13:43:12;35.80;76.90
15951;DHT22;8074;48.112;11.570;2022-07-15T13:45:39;35.50;76.30
15951;DHT22;8074;48.112;11.570;2022-07-15T13:48:06;35.20;76.70
15951;DHT22;8074;48.112;11.570;2022-07-15T13:50:33;33.80;78.40
15951;DHT22;8074;48.112;11.570;2022-07-15T13:53:29;32.60;80.00
15951;DHT22;8074;48.112;11.570;2022-07-15T13:55:58;35.20;78.10
15951;DHT22;8074;48.112;11.570;2022-07-15T13:58:25;35.00;75.80
15951;DHT22;8074;48.112;11.570;2022-07-15T14:00:51;34.70;75.90
15951;DHT22;8074;48.112;11.570;2022-07-15T14:03:18;33.90;77.50
15951;DHT22;8074;48.112;11.570;2022-07-15T14:05:45;34.20;76.50
15951;DHT22;8074;48.112;11.570;2022-07-15T14:08:12;35.20;77.40
15951;DHT22;8074;48.112;11.570;2022-07-15T14:10:40;35.60;74.70
15951;DHT22;8074;48.112;11.570;2022-07-15T14:13:08;36.80;72.80
15951;DHT22;8074;48.112;11.570;2022-07-15T14:15:35;36.50;74.20
15951;DHT22;8074;48.112;11.570;2022-07-15T14:18:03;37.10;71.80
15951;DHT22;8074;48.112;11.570;2022-07-15T14:20:31;34.90;73.30
15951;DHT22;8074;48.112;11.570;2022-07-15T14:22:58;34.20;75.40
15951;DHT22;8074;48.112;11.570;2022-07-15T14:25:25;33.70;75.40
15951;DHT22;8074;48.112;11.570;2022-07-15T14:27:52;33.80;75.60
15951;DHT22;8074;48.112;11.570;2022-07-15T14:30:20;33.90;75.80
15951;DHT22;8074;48.112;11.570;2022-07-15T14:32:48;32.60;75.70
15951;DHT22;8074;48.112;11.570;2022-07-15T14:35:15;31.30;78.40
15951;DHT22;8074;48.112;11.570;2022-07-15T14:37:42;31.20;80.30
15951;DHT22;8074;48.112;11.570;2022-07-15T14:40:09;32.80;77.60
15951;DHT22;8074;48.112;11.570;2022-07-15T14:42:36;33.60;77.00
15951;DHT22;8074;48.112;11.570;2022-07-15T14:45:05;33.60;76.20
15951;DHT22;8074;48.112;11.570;2022-07-15T14:47:33;35.40;74.30
15951;DHT22;8074;48.112;11.570;2022-07-15T14:50:01;34.00;73.90
15951;DHT22;8074;48.112;11.570;2022-07-15T14:52:28;35.40;74.70
15951;DHT22;8074;48.112;11.570;2022-07-15T14:54:55;37.20;71.60
15951;DHT22;8074;48.112;11.570;2022-07-15T14:57:22;36.70;71.20
15951;DHT22;8074;48.112;11.570;2022-07-15T14:59:49;37.70;69.90
15951;DHT22;8074;48.112;11.570;2022-07-15T15:02:16;37.90;69.70
15951;DHT22;8074;48.112;11.570;2022-07-15T15:04:46;36.50;70.90
15951;DHT22;8074;48.112;11.570;2022-07-15T15:07:13;38.20;69.20
15951;DHT22;8074;48.112;11.570;2022-07-15T15:09:40;38.60;68.30
15951;DHT22;8074;48.112;11.570;2022-07-15T15:12:07;37.40;68.50
15951;DHT22;8074;48.112;11.570;2022-07-15T15:14:34;37.40;69.00
15951;DHT22;8074;48.112;11.570;2022-07-15T15:17:01;37.30;69.10
15951;DHT22;8074;48.112;11.570;2022-07-15T15:19:28;36.40;69.00
15951;DHT22;8074;48.112;11.570;2022-07-15T15:21:56;36.50;69.80
15951;DHT22;8074;48.112;11.570;2022-07-15T15:24:23;37.30;68.60
15951;DHT22;8074;48.112;11.570;2022-07-15T15:26:51;35.60;69.40
15951;DHT22;8074;48.112;11.570;2022-07-15T15:29:18;35.50;69.60
15951;DHT22;8074;48.112;11.570;2022-07-15T15:31:45;34.00;71.20
15951;DHT22;8074;48.112;11.570;2022-07-15T15:34:13;31.90;74.50
15951;DHT22;8074;48.112;11.570;2022-07-15T15:36:40;30.50;76.80
15951;DHT22;8074;48.112;11.570;2022-07-15T15:39:10;31.80;74.60
15951;DHT22;8074;48.112;11.570;2022-07-15T15:41:37;33.70;71.40
15951;DHT22;8074;48.112;11.570;2022-07-15T15:44:04;35.20;70.00
15951;DHT22;8074;48.112;11.570;2022-07-15T15:46:31;35.10;69.80
15951;DHT22;8074;48.112;11.570;2022-07-15T15:48:58;35.90;69.00
15951;DHT22;8074;48.112;11.570;2022-07-15T15:51:26;35.60;69.60
15951;DHT22;8074;48.112;11.570;2022-07-15T15:53:52;35.20;68.60
15951;DHT22;8074;48.112;11.570;2022-07-15T15:56:21;34.90;69.70
15951;DHT22;8074;48.112;11.570;2022-07-15T15:58:48;33.40;72.60
15951;DHT22;8074;48.112;11.570;2022-07-15T16:01:15;31.90;74.60
15951;DHT22;8074;48.112;11.570;2022-07-15T16:03:42;30.90;74.80
15951;DHT22;8074;48.112;11.570;2022-07-15T16:06:09;31.80;74.10
15951;DHT22;8074;48.112;11.570;2022-07-15T16:08:36;33.30;72.50
15951;DHT22;8074;48.112;11.570;2022-07-15T16:11:04;34.90;71.60
15951;DHT22;8074;48.112;11.570;2022-07-15T16:13:32;35.30;69.70
15951;DHT22;8074;48.112;11.570;2022-07-15T16:15:59;35.40;69.00
15951;DHT22;8074;48.112;11.570;2022-07-15T16:18:26;33.80;69.90
15951;DHT22;8074;48.112;11.570;2022-07-15T16:20:53;33.10;71.60
15951;DHT22;8074;48.112;11.570;2022-07-15T16:23:20;32.40;72.10
15951;DHT22;8074;48.112;11.570;2022-07-15T16:25:46;31.70;72.90
15951;DHT22;8074;48.112;11.570;2022-07-15T16:28:15;30.90;74.60
15951;DHT22;8074;48.112;11.570;2022-07-15T16:30:45;30.70;74.90
15951;DHT22;8074;48.112;11.570;2022-07-15T16:33:13;31.50;74.10
15951;DHT22;8074;48.112;11.570;2022-07-15T16:35:59;32.80;72.20
15951;DHT22;8074;48.112;11.570;2022-07-15T16:38:46;32.80;71.50
15951;DHT22;8074;48.112;11.570;2022-07-15T16:41:33;33.30;69.70
15951;DHT22;8074;48.112;11.570;2022-07-15T16:44:00;33.40;71.70
15951;DHT22;8074;48.112;11.570;2022-07-15T16:46:29;34.40;70.00